Ampthill, United Kingdom
Current Conditions -  °F | °C
As of 4:20 PM on Saturday 22 Nov 2014 (Local Time) from EGTC Reporting Station
Few Clouds Few Clouds  
Wind Chill: 57°   Ceiling: Unl
Heat Index: 57°   Visibility: 6mi
Dew Point: 55°   Wind: 8mph
Humidity: 94%   Direction: 190°S
Pressure: 29.88"   Gusts: NA
Location:  52.03°N, 0.5°W
Report Text: EGTC 221620Z 19007KT 9999 FEW010 14/13 Q1012
Loading
Personal Weather Stations






























Interactive Weather Map New forecast layout! Learn more

10-Day Weather Forecast

Advertisements
Track Severe Weather on mobile